Time;durP1;ratioP1;P1;durP2;ratioP2;P2;SDS_P1;SDS_P2;PMS_P1;PMS_P2;Temp;Humidity;BMP_temperature;BMP_pressure;BME280_temperature;BME280_humidity;BME280_pressure;Samples;Min_cycle;Max_cycle;Signal;HPM_P1;HPM_P2
2023/07/18 00:00:25;;;;;;;12.38;4.13;;;13.10;99.90;;;;;;5117715;27;20044;-81
2023/07/18 00:02:51;;;;;;;8.65;2.95;;;13.10;99.90;;;;;;5116863;27;20028;-81
2023/07/18 00:05:17;;;;;;;6.03;2.80;;;13.00;99.90;;;;;;5118077;27;20035;-81
2023/07/18 00:07:44;;;;;;;5.40;2.75;;;13.00;99.90;;;;;;5118723;27;20057;-81
2023/07/18 00:10:11;;;;;;;10.45;2.92;;;13.00;99.90;;;;;;5118507;27;20118;-81
2023/07/18 00:12:38;;;;;;;9.05;4.10;;;13.00;99.90;;;;;;5111609;28;20054;-82
2023/07/18 00:15:05;;;;;;;12.02;3.75;;;13.00;99.90;;;;;;5111279;27;20058;-80
2023/07/18 00:17:31;;;;;;;11.07;3.17;;;12.90;99.90;;;;;;5113791;28;20039;-79
2023/07/18 00:19:58;;;;;;;6.15;3.50;;;13.00;99.90;;;;;;5113297;28;20048;-79
2023/07/18 00:22:24;;;;;;;8.55;4.10;;;12.90;99.90;;;;;;5123405;27;20063;-81
2023/07/18 00:24:49;;;;;;;8.38;3.90;;;13.00;99.90;;;;;;5121318;27;20059;-81
2023/07/18 00:27:16;;;;;;;7.35;3.35;;;13.20;99.90;;;;;;5124585;27;20034;-81
2023/07/18 00:29:41;;;;;;;9.13;3.45;;;13.20;99.90;;;;;;5122689;27;20099;-81
2023/07/18 00:32:07;;;;;;;4.57;2.80;;;13.10;99.90;;;;;;5122991;27;20094;-81
2023/07/18 00:34:32;;;;;;;7.07;3.00;;;13.10;99.90;;;;;;5117409;27;20435;-81
2023/07/18 00:36:58;;;;;;;5.28;2.45;;;13.00;99.90;;;;;;5115563;27;20084;-81
2023/07/18 00:39:23;;;;;;;5.32;3.25;;;13.00;99.90;;;;;;5117751;27;20055;-82
2023/07/18 00:41:49;;;;;;;6.68;3.20;;;13.00;99.90;;;;;;5127635;27;20076;-82
2023/07/18 00:44:15;;;;;;;6.22;3.08;;;12.90;99.90;;;;;;5120008;27;20032;-81
2023/07/18 00:46:41;;;;;;;7.38;4.28;;;12.90;99.90;;;;;;5124295;27;20562;-81
2023/07/18 00:49:08;;;;;;;7.63;3.20;;;12.90;99.90;;;;;;5122254;27;20045;-81
2023/07/18 00:51:34;;;;;;;7.57;3.05;;;12.90;99.90;;;;;;5124598;27;20043;-81
2023/07/18 00:54:00;;;;;;;14.85;3.67;;;13.00;99.90;;;;;;5122872;27;20130;-81
2023/07/18 00:56:26;;;;;;;5.80;3.28;;;13.00;99.90;;;;;;5125978;27;20130;-81
2023/07/18 00:58:52;;;;;;;9.48;3.38;;;13.00;99.90;;;;;;5120210;27;20094;-80
2023/07/18 01:01:17;;;;;;;6.78;3.00;;;13.00;99.90;;;;;;5120681;27;20537;-81
2023/07/18 01:03:44;;;;;;;8.48;2.72;;;13.00;99.90;;;;;;5125952;27;20067;-81
2023/07/18 01:06:09;;;;;;;7.20;2.90;;;13.00;99.90;;;;;;5118683;27;20074;-80
2023/07/18 01:08:35;;;;;;;4.75;2.42;;;13.00;99.90;;;;;;5123631;27;20062;-82
2023/07/18 01:11:01;;;;;;;6.35;2.65;;;13.00;99.90;;;;;;5117463;27;20044;-81
2023/07/18 01:13:27;;;;;;;6.88;3.17;;;12.90;99.90;;;;;;5125067;27;20040;-81
2023/07/18 01:15:53;;;;;;;7.50;2.88;;;12.90;99.90;;;;;;5121444;27;20062;-81
2023/07/18 01:18:18;;;;;;;5.93;2.70;;;12.80;99.90;;;;;;5120148;27;20054;-79
2023/07/18 01:20:45;;;;;;;9.45;3.20;;;12.80;99.90;;;;;;5120340;27;20729;-81
2023/07/18 01:23:11;;;;;;;6.68;3.33;;;12.80;99.90;;;;;;5121482;27;20043;-81
2023/07/18 01:25:37;;;;;;;6.13;3.05;;;12.80;99.90;;;;;;5124042;27;20366;-82
2023/07/18 01:28:03;;;;;;;7.82;3.00;;;12.70;99.90;;;;;;5116671;27;20046;-81
2023/07/18 01:30:29;;;;;;;8.65;3.53;;;12.70;99.90;;;;;;5115869;27;20177;-81
2023/07/18 01:32:56;;;;;;;6.03;2.85;;;12.70;99.90;;;;;;5110540;27;20036;-81
2023/07/18 01:35:25;;;;;;;7.30;3.13;;;12.70;99.90;;;;;;5095677;27;20884;-82
2023/07/18 01:37:51;;;;;;;9.82;3.70;;;12.70;99.90;;;;;;5114014;27;20586;-82
2023/07/18 01:40:21;;;;;;;10.13;3.20;;;12.70;99.90;;;;;;5124159;27;20078;-80
2023/07/18 01:42:52;;;;;;;9.23;3.25;;;12.70;99.90;;;;;;5121809;27;20044;-81
2023/07/18 01:45:22;;;;;;;5.72;2.60;;;12.70;99.90;;;;;;5116726;27;20050;-81
2023/07/18 01:47:49;;;;;;;6.28;3.60;;;12.60;99.90;;;;;;5115706;27;20783;-80
2023/07/18 01:50:15;;;;;;;7.60;2.80;;;12.60;99.90;;;;;;5118958;27;20059;-82
2023/07/18 01:52:40;;;;;;;7.88;3.40;;;12.70;99.90;;;;;;5120899;27;20481;-82
2023/07/18 01:55:06;;;;;;;6.43;2.92;;;12.60;99.90;;;;;;5112310;27;20028;-82
2023/07/18 01:57:44;;;;;;;7.70;3.50;;;12.70;99.90;;;;;;5123190;27;20054;-81
2023/07/18 02:00:11;;;;;;;13.13;4.15;;;12.70;99.90;;;;;;5119140;27;20055;-81
2023/07/18 02:02:40;;;;;;;9.98;3.60;;;12.80;99.90;;;;;;5122577;27;20031;-82
2023/07/18 02:05:06;;;;;;;6.65;3.90;;;12.90;99.90;;;;;;5115588;27;20039;-81
2023/07/18 02:07:32;;;;;;;8.55;3.17;;;12.90;99.90;;;;;;5117230;27;20089;-81
2023/07/18 02:10:00;;;;;;;9.15;3.00;;;13.00;99.90;;;;;;5121561;27;20038;-81
2023/07/18 02:12:25;;;;;;;5.78;2.85;;;13.00;99.90;;;;;;5119741;27;20040;-81
2023/07/18 02:14:51;;;;;;;7.03;3.13;;;12.90;99.90;;;;;;5114576;27;20078;-81
2023/07/18 02:17:17;;;;;;;7.88;3.40;;;12.90;99.90;;;;;;5115884;27;20052;-82
2023/07/18 02:19:43;;;;;;;8.00;3.42;;;12.90;99.90;;;;;;5121811;27;20035;-82
2023/07/18 02:22:08;;;;;;;9.80;3.47;;;13.00;99.90;;;;;;5113708;27;20040;-81
2023/07/18 02:24:34;;;;;;;9.85;4.05;;;13.00;99.90;;;;;;5112039;27;20101;-81
2023/07/18 02:27:00;;;;;;;12.30;3.58;;;13.00;99.90;;;;;;5118281;27;20032;-80
2023/07/18 02:29:26;;;;;;;8.70;3.47;;;13.10;99.90;;;;;;5114877;27;20047;-81
2023/07/18 02:31:52;;;;;;;9.13;3.13;;;13.10;99.90;;;;;;5113966;27;20612;-81
2023/07/18 02:34:19;;;;;;;10.50;3.03;;;13.10;99.90;;;;;;5113547;27;20050;-80
2023/07/18 02:36:44;;;;;;;6.60;3.10;;;13.00;99.90;;;;;;5117316;27;20047;-80
2023/07/18 02:39:10;;;;;;;4.30;2.63;;;12.90;99.90;;;;;;5115494;27;20065;-82
2023/07/18 02:41:37;;;;;;;12.43;5.18;;;12.90;99.90;;;;;;5117898;27;20637;-81
2023/07/18 02:44:03;;;;;;;17.17;4.63;;;12.90;99.90;;;;;;5112766;27;20147;-81
2023/07/18 02:46:29;;;;;;;8.50;3.30;;;12.90;99.90;;;;;;5115511;27;20039;-82
2023/07/18 02:48:55;;;;;;;7.03;3.28;;;12.90;99.90;;;;;;5116468;27;20050;-81
2023/07/18 02:51:20;;;;;;;9.63;4.35;;;13.00;99.90;;;;;;5119698;27;20042;-81
2023/07/18 02:53:46;;;;;;;9.25;3.53;;;13.00;99.90;;;;;;5115056;27;20153;-81
2023/07/18 02:56:11;;;;;;;8.45;3.40;;;13.00;99.90;;;;;;5119003;27;20045;-82
2023/07/18 02:58:37;;;;;;;8.27;3.13;;;13.00;99.90;;;;;;5107805;27;20067;-81
2023/07/18 03:01:03;;;;;;;8.55;4.40;;;12.90;99.90;;;;;;5110785;27;20064;-81
2023/07/18 03:03:29;;;;;;;6.38;3.55;;;12.90;99.90;;;;;;5115194;27;20051;-81
2023/07/18 03:05:56;;;;;;;11.80;4.03;;;12.90;99.90;;;;;;5119189;27;20479;-81
2023/07/18 03:08:22;;;;;;;6.80;3.75;;;12.90;99.90;;;;;;5115250;27;20036;-82
2023/07/18 03:10:47;;;;;;;7.97;3.75;;;12.90;99.90;;;;;;5105886;27;20039;-81
2023/07/18 03:13:13;;;;;;;10.38;3.70;;;12.90;99.90;;;;;;5113840;27;20046;-79
2023/07/18 03:15:39;;;;;;;10.18;3.67;;;12.90;99.90;;;;;;5112479;27;20043;-82
2023/07/18 03:18:06;;;;;;;4.55;2.67;;;12.90;99.90;;;;;;5111323;27;20044;-80
2023/07/18 03:20:32;;;;;;;6.13;2.70;;;12.80;99.90;;;;;;5112507;27;20050;-80
2023/07/18 03:22:57;;;;;;;7.25;3.78;;;12.80;99.90;;;;;;5117842;27;20044;-79
2023/07/18 03:25:23;;;;;;;11.30;4.30;;;12.90;99.90;;;;;;5117943;27;20043;-81
2023/07/18 03:27:49;;;;;;;8.77;4.68;;;12.80;99.90;;;;;;5115839;27;20063;-82
2023/07/18 03:30:16;;;;;;;6.95;3.65;;;12.90;99.90;;;;;;5114951;27;20078;-82
2023/07/18 03:32:42;;;;;;;6.90;3.90;;;12.80;99.90;;;;;;5114438;27;20159;-80
2023/07/18 03:35:09;;;;;;;6.70;2.70;;;12.90;99.90;;;;;;5113627;27;20092;-80
2023/07/18 03:37:37;;;;;;;8.93;3.28;;;12.80;99.90;;;;;;5114645;27;20054;-81
2023/07/18 03:40:06;;;;;;;6.65;2.88;;;12.80;99.90;;;;;;5112959;27;20175;-82
2023/07/18 03:42:32;;;;;;;8.43;3.47;;;12.80;99.90;;;;;;5113052;27;20096;-81
2023/07/18 03:44:57;;;;;;;7.60;3.40;;;12.80;99.90;;;;;;5118631;27;20050;-81
2023/07/18 03:47:23;;;;;;;9.25;3.50;;;12.80;99.90;;;;;;5118597;27;20389;-81
2023/07/18 03:49:49;;;;;;;7.80;3.83;;;12.80;99.90;;;;;;5118013;27;20035;-82
2023/07/18 03:52:15;;;;;;;8.90;3.50;;;12.90;99.90;;;;;;5116971;27;20071;-82
2023/07/18 03:54:40;;;;;;;9.48;3.60;;;12.90;99.90;;;;;;5117118;27;20051;-81
2023/07/18 03:57:06;;;;;;;6.03;3.13;;;12.90;99.90;;;;;;5117360;27;20060;-80
2023/07/18 03:59:32;;;;;;;8.68;3.85;;;12.90;99.90;;;;;;5115438;27;20047;-82
2023/07/18 04:01:57;;;;;;;7.97;3.10;;;12.90;99.90;;;;;;5106459;27;20057;-82
2023/07/18 04:04:23;;;;;;;8.30;3.30;;;13.00;99.90;;;;;;5110592;27;20082;-82
2023/07/18 04:06:49;;;;;;;9.73;3.50;;;12.90;99.90;;;;;;5105463;27;20138;-81
2023/07/18 04:09:14;;;;;;;10.63;3.92;;;13.00;99.90;;;;;;5112647;27;20084;-80
2023/07/18 04:11:41;;;;;;;7.63;3.25;;;13.00;99.90;;;;;;5111539;27;20958;-79
2023/07/18 04:14:06;;;;;;;11.50;4.35;;;13.10;99.90;;;;;;5107236;28;20081;-82
2023/07/18 04:16:33;;;;;;;7.07;2.92;;;13.20;99.90;;;;;;5107680;28;20107;-82
2023/07/18 04:18:58;;;;;;;8.98;4.15;;;13.20;99.90;;;;;;5109281;28;20043;-81
2023/07/18 04:21:24;;;;;;;11.65;3.50;;;13.30;99.90;;;;;;5114690;28;20040;-82
2023/07/18 04:23:50;;;;;;;9.93;3.28;;;13.50;99.90;;;;;;5112373;28;20078;-81
2023/07/18 04:26:15;;;;;;;9.60;3.22;;;13.60;99.90;;;;;;5111590;28;21044;-82
2023/07/18 04:28:41;;;;;;;9.75;3.42;;;13.70;99.90;;;;;;5107431;28;20035;-81
2023/07/18 04:31:06;;;;;;;9.15;2.92;;;13.70;99.90;;;;;;5111929;28;20415;-79
2023/07/18 04:34:06;;;;;;;7.43;3.08;;;13.80;99.90;;;;;;5118776;28;20048;-79
2023/07/18 04:36:33;;;;;;;8.95;3.70;;;14.00;99.90;;;;;;5104037;28;20103;-79
2023/07/18 04:38:58;;;;;;;8.52;3.20;;;14.00;99.90;;;;;;5101673;27;20050;-81
2023/07/18 04:41:24;;;;;;;8.60;3.13;;;14.10;99.90;;;;;;5114314;28;20502;-81
2023/07/18 04:43:49;;;;;;;7.90;3.10;;;14.10;99.90;;;;;;5111630;28;20051;-82
2023/07/18 04:46:15;;;;;;;8.93;2.83;;;14.20;99.90;;;;;;5112184;28;20142;-80
2023/07/18 04:48:40;;;;;;;12.65;3.35;;;14.20;99.90;;;;;;5110744;28;20067;-82
2023/07/18 04:51:06;;;;;;;16.30;3.35;;;14.30;99.90;;;;;;5112495;28;20040;-82
2023/07/18 04:53:32;;;;;;;10.02;3.55;;;14.30;99.90;;;;;;5109077;28;20067;-81
2023/07/18 04:55:59;;;;;;;7.53;2.60;;;14.30;99.90;;;;;;5112067;28;20054;-80
2023/07/18 04:58:27;;;;;;;12.98;3.88;;;14.30;99.90;;;;;;5110567;28;20071;-79
2023/07/18 05:00:54;;;;;;;9.80;3.45;;;14.30;99.90;;;;;;5122038;28;20052;-81
2023/07/18 05:03:21;;;;;;;11.35;3.28;;;14.40;99.90;;;;;;5117362;28;20046;-82
2023/07/18 05:05:46;;;;;;;14.95;3.53;;;14.30;99.90;;;;;;5117254;28;20036;-82
2023/07/18 05:08:12;;;;;;;13.20;3.30;;;14.40;99.90;;;;;;5103691;27;20491;-81
2023/07/18 05:10:39;;;;;;;9.35;2.90;;;14.40;99.90;;;;;;5112759;27;20027;-79
2023/07/18 05:13:04;;;;;;;10.10;3.00;;;14.40;99.90;;;;;;5115819;27;20115;-80
2023/07/18 05:15:30;;;;;;;8.13;3.08;;;14.50;99.90;;;;;;5125770;27;20110;-78
2023/07/18 05:17:55;;;;;;;8.93;3.13;;;14.60;99.90;;;;;;5122442;27;20035;-79
2023/07/18 05:20:21;;;;;;;10.73;3.00;;;14.60;99.90;;;;;;5114415;27;20040;-80
2023/07/18 05:22:47;;;;;;;11.00;3.22;;;14.80;99.90;;;;;;5112147;27;20031;-81
2023/07/18 05:25:17;;;;;;;9.55;2.45;;;14.90;99.90;;;;;;5106862;27;20173;-80
2023/07/18 05:27:43;;;;;;;7.07;2.60;;;15.60;99.90;;;;;;5106560;27;20077;-78
2023/07/18 05:30:14;;;;;;;10.98;2.75;;;16.20;99.90;;;;;;5112484;27;20063;-78
2023/07/18 05:32:40;;;;;;;9.73;3.45;;;16.60;99.90;;;;;;5121380;27;20043;-79
2023/07/18 05:35:09;;;;;;;9.23;2.92;;;16.60;99.90;;;;;;5119631;27;20115;-78
2023/07/18 05:37:35;;;;;;;12.75;3.20;;;16.50;99.90;;;;;;5115197;27;20043;-79
2023/07/18 05:40:01;;;;;;;12.25;2.40;;;16.50;99.90;;;;;;5116697;27;20118;-78
2023/07/18 05:42:26;;;;;;;7.20;2.38;;;16.50;99.90;;;;;;5113181;27;20497;-78
2023/07/18 05:44:52;;;;;;;7.07;2.88;;;16.40;99.90;;;;;;5118837;27;20046;-79
2023/07/18 05:47:17;;;;;;;7.30;2.10;;;16.40;99.90;;;;;;5115014;27;20045;-82
2023/07/18 05:49:43;;;;;;;7.50;3.15;;;16.40;99.90;;;;;;5120532;27;20073;-78
2023/07/18 05:52:08;;;;;;;6.13;2.20;;;16.30;99.90;;;;;;5109025;27;20061;-78
2023/07/18 05:54:34;;;;;;;6.75;2.90;;;16.40;99.90;;;;;;5112743;27;20513;-79
2023/07/18 05:56:59;;;;;;;7.47;2.22;;;16.50;99.90;;;;;;5117324;27;20038;-78
2023/07/18 05:59:28;;;;;;;9.20;2.70;;;16.60;99.90;;;;;;5116838;27;20043;-79
2023/07/18 06:01:53;;;;;;;7.40;2.50;;;16.70;99.90;;;;;;5115542;27;20460;-81
2023/07/18 06:04:19;;;;;;;7.53;2.25;;;16.80;99.90;;;;;;5110347;27;20128;-80
2023/07/18 06:06:44;;;;;;;8.20;3.08;;;16.70;99.90;;;;;;5116933;27;20046;-81
2023/07/18 06:09:10;;;;;;;10.85;3.10;;;16.80;99.90;;;;;;5115979;27;20047;-80
2023/07/18 06:11:36;;;;;;;8.70;2.50;;;16.80;99.90;;;;;;5120251;27;20039;-81
2023/07/18 06:14:02;;;;;;;7.70;2.03;;;16.90;99.90;;;;;;5117747;27;20051;-81
2023/07/18 06:16:28;;;;;;;10.23;2.55;;;16.90;99.90;;;;;;5114388;27;20039;-81
2023/07/18 06:18:54;;;;;;;6.75;3.28;;;17.00;99.90;;;;;;5118814;27;20123;-81
2023/07/18 06:21:20;;;;;;;11.68;2.88;;;17.00;99.90;;;;;;5119709;27;20114;-81
2023/07/18 06:23:46;;;;;;;8.98;2.83;;;17.00;99.90;;;;;;5111139;27;20478;-81
2023/07/18 06:26:11;;;;;;;11.18;2.20;;;17.10;99.90;;;;;;5113800;27;20040;-80
2023/07/18 06:28:37;;;;;;;9.18;2.05;;;17.20;99.90;;;;;;5103204;27;20101;-79
2023/07/18 06:31:02;;;;;;;9.40;2.60;;;17.30;99.90;;;;;;5112797;27;20128;-80
2023/07/18 06:33:29;;;;;;;8.40;1.95;;;17.40;99.90;;;;;;5100940;27;20046;-79
2023/07/18 06:35:56;;;;;;;9.93;2.47;;;17.50;99.90;;;;;;5112802;27;20044;-80
2023/07/18 06:38:22;;;;;;;9.30;2.47;;;17.60;99.90;;;;;;5110579;27;20035;-80
2023/07/18 06:40:49;;;;;;;10.50;2.20;;;17.60;99.90;;;;;;5107814;27;20040;-79
2023/07/18 06:43:18;;;;;;;6.95;2.10;;;17.60;99.90;;;;;;5117527;27;20036;-80
2023/07/18 06:45:48;;;;;;;7.90;2.05;;;17.70;99.90;;;;;;5113148;27;20039;-80
2023/07/18 06:48:14;;;;;;;14.70;2.70;;;17.70;99.90;;;;;;5111942;27;20035;-78
2023/07/18 06:50:47;;;;;;;7.57;2.50;;;17.60;99.90;;;;;;5114629;27;20813;-79
2023/07/18 06:53:17;;;;;;;7.60;2.30;;;17.60;99.90;;;;;;5107006;27;20056;-80
2023/07/18 06:55:43;;;;;;;8.00;1.90;;;17.60;99.90;;;;;;5115426;27;20102;-79
2023/07/18 06:58:09;;;;;;;8.80;2.55;;;17.60;99.90;;;;;;5114501;27;20819;-80
2023/07/18 07:00:36;;;;;;;11.13;2.47;;;17.60;99.90;;;;;;5111856;27;20043;-80
2023/07/18 07:03:01;;;;;;;6.50;2.35;;;17.60;99.90;;;;;;5110820;27;20061;-78
2023/07/18 07:05:27;;;;;;;6.70;2.42;;;17.70;99.90;;;;;;5108892;27;20044;-80
2023/07/18 07:07:53;;;;;;;7.57;2.40;;;18.00;99.90;;;;;;5105603;27;20046;-79
2023/07/18 07:10:19;;;;;;;6.38;2.17;;;18.10;99.90;;;;;;5110258;27;20054;-80
2023/07/18 07:12:44;;;;;;;8.40;2.60;;;18.20;99.90;;;;;;5107091;27;20122;-81
2023/07/18 07:15:11;;;;;;;10.32;2.58;;;18.30;99.90;;;;;;5117534;27;20045;-80
2023/07/18 07:17:42;;;;;;;6.47;2.63;;;18.30;99.90;;;;;;5111367;27;20063;-79
2023/07/18 07:20:19;;;;;;;7.70;2.70;;;18.50;99.90;;;;;;5108466;27;20047;-79
2023/07/18 07:22:47;;;;;;;9.02;2.42;;;18.20;99.90;;;;;;5107271;27;20035;-79
2023/07/18 07:25:16;;;;;;;6.05;2.30;;;18.30;99.90;;;;;;5112822;27;20043;-79
2023/07/18 07:27:43;;;;;;;6.15;2.05;;;18.40;99.90;;;;;;5113070;27;20095;-80
2023/07/18 07:30:10;;;;;;;14.60;3.42;;;18.40;99.90;;;;;;5107763;27;20040;-80
2023/07/18 07:32:36;;;;;;;10.68;2.42;;;18.60;99.90;;;;;;5108457;27;20035;-80
2023/07/18 07:35:04;;;;;;;6.30;2.28;;;18.80;99.90;;;;;;5112399;27;20100;-81
2023/07/18 07:37:29;;;;;;;8.10;2.65;;;18.80;99.90;;;;;;5111619;27;20053;-80
2023/07/18 07:39:55;;;;;;;11.93;2.97;;;18.80;99.90;;;;;;5107663;27;20048;-80
2023/07/18 07:42:21;;;;;;;12.80;3.70;;;18.90;99.90;;;;;;5116101;27;20108;-79
2023/07/18 07:44:46;;;;;;;9.68;2.67;;;19.20;99.90;;;;;;5114313;27;20038;-81
2023/07/18 07:47:12;;;;;;;11.88;3.40;;;19.30;99.90;;;;;;5112396;27;20034;-82
2023/07/18 07:49:37;;;;;;;5.32;2.00;;;19.60;99.90;;;;;;5111054;27;20084;-80
2023/07/18 07:52:03;;;;;;;10.75;2.60;;;20.10;99.90;;;;;;5109470;27;20043;-78
2023/07/18 07:54:29;;;;;;;9.70;2.83;;;20.50;99.90;;;;;;5112833;27;20035;-81
2023/07/18 07:56:55;;;;;;;11.52;3.10;;;20.80;99.90;;;;;;5096746;27;20042;-81
2023/07/18 07:59:20;;;;;;;11.15;3.67;;;20.80;99.90;;;;;;5115388;27;20114;-81
2023/07/18 08:01:47;;;;;;;11.88;3.22;;;20.70;99.90;;;;;;5111464;27;20032;-81
2023/07/18 08:04:13;;;;;;;9.70;2.85;;;20.60;99.90;;;;;;5110872;27;20161;-80
2023/07/18 08:06:39;;;;;;;11.65;3.20;;;20.50;99.90;;;;;;5106968;28;20062;-79
2023/07/18 08:09:05;;;;;;;14.57;3.38;;;20.80;99.90;;;;;;5108991;27;20507;-80
2023/07/18 08:11:31;;;;;;;8.60;3.15;;;21.10;99.90;;;;;;5111459;27;20073;-79
2023/07/18 08:13:56;;;;;;;9.63;3.53;;;21.50;99.90;;;;;;5105759;28;20035;-80
2023/07/18 08:16:22;;;;;;;14.68;4.78;;;21.80;99.90;;;;;;5107986;28;20114;-78
2023/07/18 08:18:47;;;;;;;12.13;3.63;;;22.00;99.90;;;;;;5112891;27;20119;-80
2023/07/18 08:21:13;;;;;;;10.38;3.58;;;22.40;99.90;;;;;;5112764;28;20783;-80
2023/07/18 08:23:39;;;;;;;8.60;3.40;;;22.50;99.90;;;;;;5111857;28;20035;-80
2023/07/18 08:26:04;;;;;;;8.68;3.22;;;22.50;99.90;;;;;;5108813;28;20031;-79
2023/07/18 08:28:30;;;;;;;11.40;3.10;;;22.60;99.90;;;;;;5102769;28;20383;-80
2023/07/18 08:30:55;;;;;;;9.07;3.70;;;22.50;99.90;;;;;;5107803;28;20433;-79
2023/07/18 08:33:21;;;;;;;10.20;2.78;;;22.50;99.90;;;;;;5108357;28;20050;-80
2023/07/18 08:35:49;;;;;;;8.98;3.33;;;22.70;99.90;;;;;;5103002;27;20040;-80
2023/07/18 08:38:14;;;;;;;12.27;3.40;;;23.10;99.90;;;;;;5111017;28;20039;-80
2023/07/18 08:40:46;;;;;;;9.02;2.85;;;23.20;99.90;;;;;;5113684;28;20859;-80
2023/07/18 08:43:14;;;;;;;13.05;3.97;;;23.40;99.90;;;;;;5106629;27;20122;-80
2023/07/18 08:45:40;;;;;;;8.43;2.60;;;23.30;99.90;;;;;;5113120;27;20046;-80
2023/07/18 08:48:06;;;;;;;8.57;2.17;;;23.20;99.90;;;;;;5119520;27;20035;-80
2023/07/18 08:50:35;;;;;;;8.63;1.83;;;23.10;99.90;;;;;;5117463;27;20659;-79
2023/07/18 08:53:04;;;;;;;8.57;1.90;;;23.10;99.90;;;;;;5119977;27;20057;-79
2023/07/18 08:55:30;;;;;;;8.13;2.40;;;23.30;99.90;;;;;;5113360;27;20040;-79
2023/07/18 08:57:56;;;;;;;11.25;2.65;;;23.70;99.90;;;;;;5116652;27;20039;-78
2023/07/18 09:00:22;;;;;;;6.68;1.75;;;23.90;99.90;;;;;;5112239;27;20093;-80
2023/07/18 09:02:51;;;;;;;9.38;2.22;;;24.00;99.90;;;;;;5110711;27;20042;-80
2023/07/18 09:05:34;;;;;;;8.32;2.45;;;24.10;99.90;;;;;;5113740;27;20032;-80
2023/07/18 09:08:01;;;;;;;9.43;2.42;;;24.30;99.90;;;;;;5111011;27;20027;-79
2023/07/18 09:10:27;;;;;;;10.48;2.80;;;24.40;99.90;;;;;;5116091;27;20043;-79
2023/07/18 09:12:53;;;;;;;11.27;2.05;;;24.60;99.90;;;;;;5112971;27;20040;-80
2023/07/18 09:15:20;;;;;;;13.20;2.03;;;25.20;99.90;;;;;;5114025;27;20045;-79
2023/07/18 09:18:02;;;;;;;10.52;2.88;;;25.20;99.90;;;;;;5118079;27;20096;-80
2023/07/18 09:20:29;;;;;;;7.57;1.23;;;25.20;99.90;;;;;;5115537;27;20115;-80
2023/07/18 09:23:00;;;;;;;6.53;2.17;;;25.30;99.90;;;;;;5117555;27;20146;-80
2023/07/18 09:25:26;;;;;;;7.68;2.20;;;25.30;99.90;;;;;;5115943;27;20040;-79
2023/07/18 09:27:54;;;;;;;8.00;1.75;;;25.30;99.90;;;;;;5120331;27;20055;-80
2023/07/18 09:30:49;;;;;;;5.13;1.80;;;25.20;99.90;;;;;;5111869;27;20115;-79
2023/07/18 09:33:23;;;;;;;7.90;1.90;;;25.20;99.90;;;;;;5102696;27;20055;-79
2023/07/18 09:35:49;;;;;;;8.27;1.50;;;25.20;99.90;;;;;;5123153;27;20041;-80
2023/07/18 09:38:14;;;;;;;6.70;1.63;;;25.10;99.90;;;;;;5122252;27;20039;-80
2023/07/18 09:40:40;;;;;;;13.70;1.80;;;25.20;99.90;;;;;;5116653;27;20092;-79
2023/07/18 09:43:06;;;;;;;8.73;1.65;;;25.20;99.90;;;;;;5118062;27;20028;-78
2023/07/18 09:45:32;;;;;;;5.20;1.42;;;25.10;99.90;;;;;;5106931;27;20363;-80
2023/07/18 09:47:58;;;;;;;9.85;1.88;;;25.00;99.90;;;;;;5114654;27;20546;-80
2023/07/18 09:50:26;;;;;;;8.75;1.45;;;24.90;99.90;;;;;;5120467;27;20374;-78
2023/07/18 09:52:56;;;;;;;10.02;1.48;;;24.80;99.90;;;;;;5110600;27;20051;-80
2023/07/18 09:55:24;;;;;;;7.57;1.67;;;24.80;99.90;;;;;;5118936;27;20043;-78
2023/07/18 09:57:53;;;;;;;5.22;1.20;;;24.60;99.90;;;;;;5120246;27;20565;-80
2023/07/18 10:00:22;;;;;;;6.82;1.50;;;24.50;99.90;;;;;;5115386;27;20048;-79
2023/07/18 10:02:48;;;;;;;5.82;1.40;;;24.40;99.90;;;;;;5115519;27;20412;-79
2023/07/18 10:05:15;;;;;;;9.00;1.92;;;24.50;99.90;;;;;;5113012;27;20056;-79
2023/07/18 10:07:42;;;;;;;7.47;2.50;;;24.60;99.90;;;;;;5112594;27;20618;-80
2023/07/18 10:10:09;;;;;;;7.47;1.58;;;24.60;99.90;;;;;;5112831;27;20084;-79
2023/07/18 10:13:00;;;;;;;6.88;1.40;;;24.60;99.90;;;;;;5111099;27;20413;-80
2023/07/18 10:15:27;;;;;;;6.68;1.30;;;24.60;99.90;;;;;;5126025;27;20123;-81
2023/07/18 10:17:53;;;;;;;5.88;1.13;;;24.50;99.90;;;;;;5122046;27;20039;-82
2023/07/18 10:20:21;;;;;;;4.80;0.88;;;24.50;99.90;;;;;;5115968;27;20040;-79
2023/07/18 10:22:57;;;;;;;4.45;1.25;;;24.50;99.90;;;;;;5114355;27;20428;-80
2023/07/18 10:25:23;;;;;;;7.15;1.75;;;24.50;99.90;;;;;;5120339;27;20055;-81
2023/07/18 10:27:49;;;;;;;6.55;1.50;;;24.60;99.90;;;;;;5115440;27;20033;-80
2023/07/18 10:30:17;;;;;;;6.10;1.15;;;24.50;99.90;;;;;;5121368;27;20047;-80
2023/07/18 10:32:53;;;;;;;4.93;1.23;;;24.70;99.90;;;;;;5118485;27;20044;-79
2023/07/18 10:35:21;;;;;;;4.80;1.20;;;24.80;99.90;;;;;;5117154;27;20036;-79
2023/07/18 10:37:53;;;;;;;4.05;0.95;;;25.00;99.90;;;;;;5117799;27;20096;-81
2023/07/18 10:40:36;;;;;;;7.38;0.98;;;25.10;99.90;;;;;;5116275;27;20461;-79
2023/07/18 10:43:10;;;;;;;50.13;3.67;;;25.10;99.80;;;;;;5118295;27;20036;-78
2023/07/18 10:45:41;;;;;;;4.20;0.82;;;25.20;99.60;;;;;;5118168;27;20031;-79
2023/07/18 10:48:11;;;;;;;2.80;0.80;;;25.10;99.60;;;;;;5111220;27;20039;-80
2023/07/18 10:50:36;;;;;;;6.50;1.60;;;25.00;98.10;;;;;;5114987;27;20082;-79
2023/07/18 10:53:09;;;;;;;3.47;0.68;;;25.00;98.70;;;;;;5117370;27;20124;-78
2023/07/18 10:55:34;;;;;;;4.28;0.68;;;25.10;99.00;;;;;;5116838;27;20125;-79
2023/07/18 10:58:00;;;;;;;3.88;1.27;;;25.30;99.60;;;;;;5118579;27;20204;-80
2023/07/18 11:00:25;;;;;;;3.47;1.23;;;25.20;99.20;;;;;;5117054;27;20106;-79
2023/07/18 11:02:51;;;;;;;3.28;1.00;;;25.30;99.80;;;;;;5115984;27;20048;-79
2023/07/18 11:05:16;;;;;;;4.38;1.00;;;25.50;99.10;;;;;;5111226;27;20122;-80
2023/07/18 11:07:45;;;;;;;3.50;0.88;;;25.50;98.70;;;;;;5116613;27;20046;-79
2023/07/18 11:10:12;;;;;;;4.32;0.90;;;25.70;99.80;;;;;;5119281;27;20041;-79
2023/07/18 11:12:39;;;;;;;6.82;1.85;;;25.80;97.90;;;;;;5117113;27;20034;-80
2023/07/18 11:15:10;;;;;;;5.53;1.73;;;25.90;97.60;;;;;;5116026;27;20039;-79
2023/07/18 11:17:35;;;;;;;5.75;0.80;;;26.00;98.50;;;;;;5114165;27;20385;-79
2023/07/18 11:20:03;;;;;;;6.43;1.08;;;26.10;97.90;;;;;;5117925;27;20139;-80
2023/07/18 11:22:29;;;;;;;5.57;0.98;;;25.70;97.50;;;;;;5118820;27;20044;-80
2023/07/18 11:24:55;;;;;;;11.05;1.45;;;25.50;98.40;;;;;;5117456;27;20054;-79
2023/07/18 11:27:26;;;;;;;2.78;0.68;;;25.30;98.00;;;;;;5112508;27;20036;-80
2023/07/18 11:30:03;;;;;;;3.80;1.05;;;25.00;98.10;;;;;;5111157;27;20044;-81
2023/07/18 11:32:38;;;;;;;3.75;0.80;;;24.80;98.00;;;;;;5100393;27;20046;-82
2023/07/18 11:35:26;;;;;;;3.38;0.90;;;24.70;98.10;;;;;;5114046;27;20565;-81
2023/07/18 11:37:53;;;;;;;4.40;1.00;;;24.80;98.30;;;;;;5115232;27;20051;-82
2023/07/18 11:40:25;;;;;;;3.45;1.00;;;25.00;98.40;;;;;;5112166;27;20505;-81
2023/07/18 11:42:58;;;;;;;4.05;0.77;;;25.20;99.00;;;;;;5123420;27;20059;-81
2023/07/18 11:45:25;;;;;;;13.60;0.80;;;25.40;97.30;;;;;;5109133;27;20035;-77
2023/07/18 11:47:53;;;;;;;2.28;0.50;;;25.50;97.70;;;;;;5117941;27;20054;-79
2023/07/18 11:50:19;;;;;;;6.18;0.80;;;25.50;96.80;;;;;;5120062;27;20044;-80
2023/07/18 11:52:49;;;;;;;5.03;1.00;;;25.50;96.50;;;;;;5123544;27;20043;-81
2023/07/18 11:55:16;;;;;;;2.00;0.60;;;25.30;96.80;;;;;;5113151;27;20154;-82
2023/07/18 11:57:42;;;;;;;2.50;0.77;;;25.20;97.70;;;;;;5118221;27;20060;-81
2023/07/18 12:00:09;;;;;;;3.75;0.60;;;25.30;97.20;;;;;;5112713;27;20086;-81
2023/07/18 12:02:35;;;;;;;3.65;0.90;;;25.30;97.40;;;;;;5112750;27;20055;-81
2023/07/18 12:05:00;;;;;;;5.53;1.35;;;25.30;96.90;;;;;;5118514;27;20043;-81
2023/07/18 12:07:26;;;;;;;3.45;0.65;;;25.10;97.20;;;;;;5091050;28;20031;-81
2023/07/18 12:09:52;;;;;;;3.08;0.77;;;25.20;98.00;;;;;;5119767;27;20187;-80
2023/07/18 12:12:19;;;;;;;6.35;0.90;;;25.20;97.40;;;;;;5118347;27;20440;-81
2023/07/18 12:14:45;;;;;;;4.53;0.80;;;25.40;97.80;;;;;;5115290;27;20477;-80
2023/07/18 12:17:11;;;;;;;1.48;0.50;;;25.40;96.50;;;;;;5110939;27;20063;-81
2023/07/18 12:19:36;;;;;;;2.92;0.85;;;25.30;96.60;;;;;;5107720;27;20035;-80
2023/07/18 12:22:02;;;;;;;1.75;0.40;;;25.10;97.10;;;;;;5113102;28;20114;-81
2023/07/18 12:24:28;;;;;;;2.88;0.60;;;25.10;96.90;;;;;;5118155;28;20462;-80
2023/07/18 12:26:53;;;;;;;3.22;0.70;;;25.10;96.90;;;;;;5119903;28;20625;-81
2023/07/18 12:29:19;;;;;;;3.50;0.85;;;25.20;97.20;;;;;;5114252;28;20806;-81
2023/07/18 12:31:49;;;;;;;6.60;2.25;;;25.20;96.40;;;;;;5101415;28;20052;-81
2023/07/18 12:34:15;;;;;;;4.05;1.05;;;25.20;96.70;;;;;;5106072;28;20044;-81
2023/07/18 12:36:42;;;;;;;5.00;1.17;;;25.30;97.50;;;;;;5114485;28;20110;-81
2023/07/18 12:39:08;;;;;;;6.53;1.33;;;25.30;97.60;;;;;;5100887;28;20143;-82
2023/07/18 12:41:35;;;;;;;2.72;0.82;;;25.40;97.50;;;;;;5107622;28;20082;-81
2023/07/18 12:44:00;;;;;;;3.10;0.73;;;25.40;97.20;;;;;;5111446;28;20047;-81